createdAt,value
2018-02-10T00:02:17.791Z,99471.30
2018-02-10T00:04:44.662Z,99486.05
2018-02-10T00:07:12.519Z,99485.42
2018-02-10T00:09:38.986Z,99492.94
2018-02-10T00:12:05.371Z,99502.69
2018-02-10T00:14:31.816Z,99497.02
2018-02-10T00:16:58.176Z,99499.06
2018-02-10T00:19:24.532Z,99489.09
2018-02-10T00:21:50.909Z,99485.58
2018-02-10T00:24:17.408Z,99486.22
2018-02-10T00:26:43.760Z,99475.73
2018-02-10T00:29:10.196Z,99474.66
2018-02-10T00:31:36.546Z,99463.55
2018-02-10T00:34:02.948Z,99462.09
2018-02-10T00:36:29.360Z,99455.32
2018-02-10T00:38:55.757Z,99443.17
2018-02-10T00:41:22.115Z,99441.19
2018-02-10T00:43:48.536Z,99440.33
2018-02-10T00:46:14.925Z,99443.10
2018-02-10T00:48:41.268Z,99448.77
2018-02-10T00:51:07.689Z,99452.24
2018-02-10T00:53:34.029Z,99453.42
2018-02-10T00:56:00.384Z,99455.51
2018-02-10T00:58:26.782Z,99453.31
2018-02-10T01:00:53.259Z,99455.32
2018-02-10T01:03:19.608Z,99456.42
2018-02-10T01:05:46.003Z,99454.75
2018-02-10T01:08:12.376Z,99454.80
2018-02-10T01:10:38.792Z,99453.76
2018-02-10T01:13:05.188Z,99451.21
2018-02-10T01:15:31.552Z,99450.53
2018-02-10T01:17:57.896Z,99451.73
2018-02-10T01:20:24.313Z,99447.81
2018-02-10T01:22:50.688Z,99445.41
2018-02-10T01:25:17.121Z,99435.56
2018-02-10T01:27:43.517Z,99430.33
2018-02-10T01:30:09.873Z,99432.14
2018-02-10T01:32:36.237Z,99422.91
2018-02-10T01:35:02.644Z,99421.20
2018-02-10T01:37:28.988Z,99424.70
2018-02-10T01:39:55.370Z,99420.45
2018-02-10T01:42:21.777Z,99418.08
2018-02-10T01:44:48.134Z,99413.89
2018-02-10T01:47:14.692Z,99415.36
2018-02-10T01:49:41.101Z,99421.83
2018-02-10T01:52:07.492Z,99426.90
2018-02-10T01:54:33.950Z,99425.48
2018-02-10T01:57:00.340Z,99431.67
2018-02-10T01:59:26.697Z,99420.44
2018-02-10T02:01:53.081Z,99412.44
2018-02-10T02:04:19.429Z,99413.75
2018-02-10T02:06:45.800Z,99407.88
2018-02-10T02:09:12.238Z,99417.59
2018-02-10T02:11:38.616Z,99419.84
2018-02-10T02:14:05.024Z,99416.89
2018-02-10T02:16:31.433Z,99420.38
2018-02-10T02:18:57.792Z,99420.92
2018-02-10T02:21:24.142Z,99421.34
2018-02-10T02:23:50.548Z,99425.10
2018-02-10T02:26:17.012Z,99431.02
2018-02-10T02:28:43.372Z,99441.09
2018-02-10T02:31:09.755Z,99439.34
2018-02-10T02:33:36.103Z,99436.14
2018-02-10T02:36:02.488Z,99449.80
2018-02-10T02:38:28.894Z,99454.89
2018-02-10T02:40:55.233Z,99452.89
2018-02-10T02:43:21.572Z,99456.08
2018-02-10T02:45:48.000Z,99451.16
2018-02-10T02:48:14.364Z,99450.25
2018-02-10T02:50:40.697Z,99444.42
2018-02-10T02:53:07.060Z,99441.28
2018-02-10T02:55:33.413Z,99445.27
2018-02-10T02:57:59.801Z,99437.45
2018-02-10T03:00:26.176Z,99435.13
2018-02-10T03:02:52.529Z,99434.83
2018-02-10T03:05:18.931Z,99439.78
2018-02-10T03:07:45.280Z,99437.14
2018-02-10T03:10:11.613Z,99436.77
2018-02-10T03:12:38.027Z,99437.00
2018-02-10T03:15:04.397Z,99428.67
2018-02-10T03:17:30.740Z,99433.32
2018-02-10T03:19:57.148Z,99434.01
2018-02-10T03:22:23.492Z,99435.28
2018-02-10T03:24:49.975Z,99426.41
2018-02-10T03:27:16.361Z,99423.95
2018-02-10T03:29:42.707Z,99423.55
2018-02-10T03:32:09.184Z,99418.38
2018-02-10T03:34:35.524Z,99417.39
2018-02-10T03:37:01.864Z,99409.29
2018-02-10T03:39:28.240Z,99401.34
2018-02-10T03:41:54.631Z,99411.98
2018-02-10T03:44:21.033Z,99415.84
2018-02-10T03:46:47.420Z,99415.69
2018-02-10T03:49:13.764Z,99414.67
2018-02-10T03:51:40.104Z,99410.29
2018-02-10T03:54:06.488Z,99406.41
2018-02-10T03:56:32.876Z,99407.16
2018-02-10T03:58:59.304Z,99418.06
2018-02-10T04:01:25.716Z,99406.30
2018-02-10T04:03:52.064Z,99410.20
2018-02-10T04:06:18.523Z,99408.22
2018-02-10T04:08:45.046Z,99418.56
2018-02-10T04:11:11.375Z,99420.08
2018-02-10T04:13:37.718Z,99417.89
2018-02-10T04:16:04.068Z,99420.52
2018-02-10T04:18:30.414Z,99413.48
2018-02-10T04:20:56.800Z,99406.44
2018-02-10T04:23:23.141Z,99408.62
2018-02-10T04:25:49.453Z,99405.63
2018-02-10T04:28:15.834Z,99410.97
2018-02-10T04:30:42.173Z,99411.73
2018-02-10T04:33:08.501Z,99412.16
2018-02-10T04:35:34.853Z,99412.02
2018-02-10T04:38:01.284Z,99420.80
2018-02-10T04:40:27.609Z,99416.48
2018-02-10T04:42:53.942Z,99416.20
2018-02-10T04:45:20.293Z,99419.56
2018-02-10T04:47:46.689Z,99420.66
2018-02-10T04:50:13.025Z,99422.18
2018-02-10T04:52:39.565Z,99419.42
2018-02-10T04:55:05.896Z,99418.02
2018-02-10T04:57:32.268Z,99421.70
2018-02-10T04:59:58.641Z,99426.16
2018-02-10T05:02:24.977Z,99428.67
2018-02-10T05:04:51.360Z,99419.75
2018-02-10T05:07:17.716Z,99433.58
2018-02-10T05:09:44.032Z,99426.11
2018-02-10T05:12:10.478Z,99428.08
2018-02-10T05:14:36.862Z,99425.80
2018-02-10T05:17:03.265Z,99428.60
2018-02-10T05:19:29.667Z,99430.37
2018-02-10T05:21:55.996Z,99433.02
2018-02-10T05:24:22.385Z,99439.74
2018-02-10T05:26:48.936Z,99434.44
2018-02-10T05:29:15.249Z,99438.53
2018-02-10T05:31:41.569Z,99438.44
2018-02-10T05:34:07.949Z,99430.16
2018-02-10T05:36:34.404Z,99426.50
2018-02-10T05:39:00.776Z,99441.41
2018-02-10T05:41:27.153Z,99443.07
2018-02-10T05:43:53.486Z,99448.08
2018-02-10T05:46:19.831Z,99462.91
2018-02-10T05:48:46.221Z,99468.16
2018-02-10T05:51:12.616Z,99473.95
2018-02-10T05:53:38.958Z,99462.42
2018-02-10T05:56:05.316Z,99467.48
2018-02-10T05:58:31.676Z,99458.78
2018-02-10T06:00:58.122Z,99456.97
2018-02-10T06:03:24.496Z,99460.16
2018-02-10T06:05:50.989Z,99454.95
2018-02-10T06:08:17.320Z,99459.78
2018-02-10T06:10:43.771Z,99459.48
2018-02-10T06:13:10.141Z,99448.45
2018-02-10T06:15:36.517Z,99445.35
2018-02-10T06:18:02.930Z,99440.95
2018-02-10T06:20:29.292Z,99435.41
2018-02-10T06:22:55.716Z,99433.55
2018-02-10T06:25:22.064Z,99432.94
2018-02-10T06:27:48.452Z,99435.41
2018-02-10T06:30:14.778Z,99441.59
2018-02-10T06:32:41.168Z,99438.56
2018-02-10T06:35:07.570Z,99447.75
2018-02-10T06:37:33.905Z,99445.34
2018-02-10T06:40:00.276Z,99447.75
2018-02-10T06:42:26.714Z,99451.30
2018-02-10T06:44:53.137Z,99451.80
2018-02-10T06:47:19.556Z,99449.58
2018-02-10T06:49:46.057Z,99449.77
2018-02-10T06:52:12.552Z,99448.48
2018-02-10T06:54:38.966Z,99440.80
2018-02-10T06:57:05.301Z,99438.41
2018-02-10T06:59:31.684Z,99441.83
2018-02-10T07:01:58.053Z,99447.02
2018-02-10T07:04:24.403Z,99449.80
2018-02-10T07:06:50.750Z,99446.06
2018-02-10T07:09:17.206Z,99440.66
2018-02-10T07:11:43.573Z,99442.28
2018-02-10T07:14:09.921Z,99453.53
2018-02-10T07:16:36.381Z,99456.27
2018-02-10T07:19:02.784Z,99460.36
2018-02-10T07:21:29.132Z,99464.36
2018-02-10T07:23:55.625Z,99461.08
2018-02-10T07:26:22.033Z,99462.84
2018-02-10T07:28:48.432Z,99464.41
2018-02-10T07:31:14.801Z,99452.47
2018-02-10T07:33:41.193Z,99449.63
2018-02-10T07:36:07.565Z,99444.30
2018-02-10T07:38:33.963Z,99449.46
2018-02-10T07:41:00.479Z,99440.78
2018-02-10T07:43:27.921Z,99428.98
2018-02-10T07:45:54.324Z,99425.61
2018-02-10T07:48:20.817Z,99426.45
2018-02-10T07:50:47.380Z,99421.69
2018-02-10T07:53:13.688Z,99415.69
2018-02-10T07:55:40.133Z,99425.17
2018-02-10T07:58:07.595Z,99427.33
2018-02-10T08:00:34.603Z,99428.27
2018-02-10T08:03:01.160Z,99426.98
2018-02-10T08:05:27.508Z,99426.69
2018-02-10T08:07:55.523Z,99422.89
2018-02-10T08:10:22.192Z,99414.87
2018-02-10T08:12:48.920Z,99422.30
2018-02-10T08:15:16.286Z,99417.90
2018-02-10T08:17:42.796Z,99416.37
2018-02-10T08:20:09.179Z,99418.61
2018-02-10T08:22:35.553Z,99415.22
2018-02-10T08:25:02.046Z,99408.50
2018-02-10T08:27:28.377Z,99409.44
2018-02-10T08:29:54.752Z,99401.58
2018-02-10T08:32:21.106Z,99403.16
2018-02-10T08:34:47.491Z,99401.41
2018-02-10T08:37:13.826Z,99399.66
2018-02-10T08:39:40.209Z,99398.14
2018-02-10T08:42:06.669Z,99396.14
2018-02-10T08:44:33.033Z,99399.19
2018-02-10T08:46:59.375Z,99397.02
2018-02-10T08:49:25.840Z,99392.44
2018-02-10T08:51:52.717Z,99396.67
2018-02-10T08:54:19.108Z,99386.46
2018-02-10T08:56:45.858Z,99393.58
2018-02-10T08:59:14.181Z,99394.76
2018-02-10T09:01:40.775Z,99391.47
2018-02-10T09:04:07.241Z,99394.30
2018-02-10T09:06:33.593Z,99393.77
2018-02-10T09:08:59.921Z,99387.41
2018-02-10T09:11:26.302Z,99385.39
2018-02-10T09:13:52.680Z,99380.36
2018-02-10T09:16:19.163Z,99377.73
2018-02-10T09:18:45.536Z,99377.86
2018-02-10T09:21:11.874Z,99381.69
2018-02-10T09:23:38.206Z,99379.80
2018-02-10T09:26:04.555Z,99381.31
2018-02-10T09:28:31.132Z,99375.75
2018-02-10T09:30:57.469Z,99375.45
2018-02-10T09:33:23.836Z,99368.91
2018-02-10T09:35:50.267Z,99362.45
2018-02-10T09:38:16.653Z,99354.70
2018-02-10T09:40:43.141Z,99349.61
2018-02-10T09:43:09.521Z,99351.59
2018-02-10T09:45:35.844Z,99335.53
2018-02-10T09:48:02.186Z,99337.20
2018-02-10T09:50:28.607Z,99338.87
2018-02-10T09:52:54.945Z,99333.41
2018-02-10T09:55:21.278Z,99326.89
2018-02-10T09:57:47.656Z,99319.45
2018-02-10T10:00:13.993Z,99321.03
2018-02-10T10:02:40.358Z,99311.75
2018-02-10T10:05:06.753Z,99307.13
2018-02-10T10:07:33.128Z,99304.55
2018-02-10T10:09:59.473Z,99305.33
2018-02-10T10:12:25.826Z,99293.43
2018-02-10T10:14:52.203Z,99291.23
2018-02-10T10:17:18.589Z,99290.31
2018-02-10T10:19:44.953Z,99285.80
2018-02-10T10:22:11.293Z,99275.05
2018-02-10T10:24:37.685Z,99271.29
2018-02-10T10:27:04.036Z,99261.69
2018-02-10T10:29:30.391Z,99258.16
2018-02-10T10:31:56.741Z,99261.31
2018-02-10T10:34:23.132Z,99250.77
2018-02-10T10:36:49.489Z,99249.47
2018-02-10T10:39:15.821Z,99252.83
2018-02-10T10:41:42.216Z,99255.02
2018-02-10T10:44:08.603Z,99251.50
2018-02-10T10:46:34.953Z,99248.32
2018-02-10T10:49:01.320Z,99241.59
2018-02-10T10:51:27.684Z,99243.22
2018-02-10T10:53:54.216Z,99242.55
2018-02-10T10:56:20.552Z,99226.09
2018-02-10T10:58:47.183Z,99217.27
2018-02-10T11:01:13.669Z,99217.72
2018-02-10T11:03:39.956Z,99206.09
2018-02-10T11:06:06.320Z,99195.23
2018-02-10T11:08:39.653Z,99193.37
2018-02-10T11:11:06.043Z,99189.92
2018-02-10T11:13:32.572Z,99181.78
2018-02-10T11:15:58.952Z,99178.55
2018-02-10T11:18:25.365Z,99170.27
2018-02-10T11:20:51.829Z,99162.72
2018-02-10T11:23:18.170Z,99157.73
2018-02-10T11:25:44.511Z,99160.20
2018-02-10T11:28:10.924Z,99151.09
2018-02-10T11:30:37.261Z,99152.11
2018-02-10T11:33:03.580Z,99151.02
2018-02-10T11:35:29.960Z,99134.72
2018-02-10T11:37:56.317Z,99132.84
2018-02-10T11:40:22.665Z,99135.55
2018-02-10T11:42:49.056Z,99138.13
2018-02-10T11:45:15.438Z,99133.38
2018-02-10T11:47:41.788Z,99124.13
2018-02-10T11:50:08.160Z,99126.23
2018-02-10T11:52:34.506Z,99122.84
2018-02-10T11:55:00.921Z,99120.47
2018-02-10T11:57:27.340Z,99113.92
2018-02-10T11:59:53.712Z,99108.20
2018-02-10T12:02:20.060Z,99103.23
2018-02-10T12:04:46.436Z,99103.97
2018-02-10T12:07:12.775Z,99102.52
2018-02-10T12:09:39.154Z,99090.16
2018-02-10T12:12:05.480Z,99094.73
2018-02-10T12:14:31.816Z,99084.80
2018-02-10T12:16:58.304Z,99079.07
2018-02-10T12:19:24.731Z,99081.48
2018-02-10T12:21:51.065Z,99074.83
2018-02-10T12:24:17.673Z,99069.77
2018-02-10T12:26:44.148Z,99074.44
2018-02-10T12:29:10.524Z,99067.20
2018-02-10T12:31:36.925Z,99054.03
2018-02-10T12:34:03.284Z,99048.70
2018-02-10T12:36:29.677Z,99044.67
2018-02-10T12:38:56.126Z,99041.97
2018-02-10T12:41:22.492Z,99044.98
2018-02-10T12:43:48.843Z,99037.54
2018-02-10T12:46:15.337Z,99030.89
2018-02-10T12:48:47.853Z,99030.05
2018-02-10T12:51:14.209Z,99029.80
2018-02-10T12:53:41.767Z,99029.43
2018-02-10T12:56:08.245Z,99029.12
2018-02-10T12:58:34.577Z,99036.20
2018-02-10T13:01:00.974Z,99035.75
2018-02-10T13:03:27.469Z,99038.03
2018-02-10T13:05:54.085Z,99035.47
2018-02-10T13:08:20.624Z,99036.91
2018-02-10T13:10:47.213Z,99028.06
2018-02-10T13:13:13.665Z,99033.15
2018-02-10T13:15:40.065Z,99024.80
2018-02-10T13:18:06.631Z,99018.20
2018-02-10T13:20:33.078Z,99021.71
2018-02-10T13:22:59.480Z,99025.73
2018-02-10T13:25:25.912Z,99029.31
2018-02-10T13:27:52.410Z,99034.73
2018-02-10T13:30:18.826Z,99046.32
2018-02-10T13:32:45.283Z,99049.16
2018-02-10T13:35:11.612Z,99047.27
2018-02-10T13:37:37.996Z,99047.98
2018-02-10T13:40:04.461Z,99044.42
2018-02-10T13:42:30.809Z,99035.94
2018-02-10T13:44:57.248Z,99034.05
2018-02-10T13:47:23.697Z,99016.58
2018-02-10T13:49:50.153Z,99019.34
2018-02-10T13:52:16.597Z,99007.14
2018-02-10T13:54:43.053Z,99003.70
2018-02-10T13:57:10.368Z,99003.78
2018-02-10T13:59:36.809Z,99005.41
2018-02-10T14:02:03.253Z,99008.13
2018-02-10T14:04:29.696Z,99010.32
2018-02-10T14:06:56.386Z,99012.69
2018-02-10T14:09:22.884Z,99013.24
2018-02-10T14:11:49.416Z,99013.12
2018-02-10T14:14:16.976Z,99009.04
2018-02-10T14:16:43.372Z,99015.59
2018-02-10T14:19:09.745Z,99007.92
2018-02-10T14:21:36.255Z,99003.00
2018-02-10T14:24:02.953Z,98997.30
2018-02-10T14:26:29.361Z,99000.13
2018-02-10T14:28:55.765Z,98988.66
2018-02-10T14:31:22.193Z,98986.73
2018-02-10T14:33:48.573Z,98983.98
2018-02-10T14:36:14.940Z,98982.77
2018-02-10T14:38:41.373Z,98986.48
2018-02-10T14:41:07.749Z,98980.14
2018-02-10T14:43:34.145Z,98982.16
2018-02-10T14:46:00.625Z,98987.00
2018-02-10T14:48:27.036Z,98985.39
2018-02-10T14:50:53.425Z,98982.04
2018-02-10T14:53:19.858Z,98975.05
2018-02-10T14:55:46.305Z,98980.88
2018-02-10T14:58:12.628Z,98985.75
2018-02-10T15:00:39.084Z,98978.46
2018-02-10T15:03:05.443Z,98966.00
2018-02-10T15:05:31.844Z,98961.56
2018-02-10T15:07:58.244Z,98952.84
2018-02-10T15:10:24.645Z,98952.02
2018-02-10T15:12:51.344Z,98951.96
2018-02-10T15:15:17.916Z,98951.63
2018-02-10T15:17:44.249Z,98953.34
2018-02-10T15:20:10.660Z,98962.05
2018-02-10T15:22:37.090Z,98962.41
2018-02-10T15:25:03.629Z,98957.63
2018-02-10T15:27:30.224Z,98949.95
2018-02-10T15:30:08.953Z,98957.29
2018-02-10T15:32:47.521Z,98954.82
2018-02-10T15:35:13.945Z,98953.58
2018-02-10T15:37:40.250Z,98950.59
2018-02-10T15:40:06.662Z,98950.92
2018-02-10T15:42:33.114Z,98939.50
2018-02-10T15:45:00.631Z,98934.68
2018-02-10T15:47:27.001Z,98943.42
2018-02-10T15:49:53.352Z,98935.44
2018-02-10T15:52:19.818Z,98942.00
2018-02-10T15:54:46.321Z,98938.06
2018-02-10T15:57:12.701Z,98934.19
2018-02-10T15:59:39.146Z,98935.60
2018-02-10T16:02:05.521Z,98933.63
2018-02-10T16:04:31.897Z,98933.86
2018-02-10T16:06:58.390Z,98930.06
2018-02-10T16:09:24.802Z,98936.83
2018-02-10T16:11:51.197Z,98934.81
2018-02-10T16:14:17.656Z,98938.00
2018-02-10T16:16:44.024Z,98937.98
2018-02-10T16:19:10.497Z,98932.16
2018-02-10T16:21:36.942Z,98929.20
2018-02-10T16:24:03.374Z,98925.13
2018-02-10T16:26:29.793Z,98920.77
2018-02-10T16:28:56.257Z,98924.48
2018-02-10T16:31:22.625Z,98922.56
2018-02-10T16:33:49.017Z,98913.12
2018-02-10T16:36:15.437Z,98915.48
2018-02-10T16:38:41.813Z,98913.40
2018-02-10T16:41:08.214Z,98905.93
2018-02-10T16:43:34.593Z,98906.88
2018-02-10T16:46:01.009Z,98899.14
2018-02-10T16:48:27.407Z,98895.66
2018-02-10T16:50:53.753Z,98901.72
2018-02-10T16:53:20.240Z,98895.34
2018-02-10T16:55:46.703Z,98898.56
2018-02-10T16:58:13.111Z,98890.80
2018-02-10T17:00:39.468Z,98880.55
2018-02-10T17:03:05.941Z,98872.84
2018-02-10T17:05:32.410Z,98879.05
2018-02-10T17:07:58.833Z,98869.66
2018-02-10T17:10:25.194Z,98870.99
2018-02-10T17:12:51.597Z,98856.17
2018-02-10T17:15:18.067Z,98852.81
2018-02-10T17:17:44.441Z,98846.92
2018-02-10T17:20:10.903Z,98845.78
2018-02-10T17:22:37.414Z,98853.06
2018-02-10T17:25:03.908Z,98855.95
2018-02-10T17:27:30.300Z,98854.89
2018-02-10T17:29:56.660Z,98856.34
2018-02-10T17:32:23.094Z,98843.20
2018-02-10T17:34:49.515Z,98844.98
2018-02-10T17:37:15.851Z,98839.27
2018-02-10T17:39:42.327Z,98837.95
2018-02-10T17:42:08.737Z,98834.86
2018-02-10T17:44:35.129Z,98830.73
2018-02-10T17:47:01.543Z,98826.57
2018-02-10T17:49:27.932Z,98826.77
2018-02-10T17:51:54.386Z,98826.97
2018-02-10T17:54:20.940Z,98830.56
2018-02-10T17:56:47.422Z,98821.86
2018-02-10T17:59:13.826Z,98822.41
2018-02-10T18:01:40.246Z,98817.14
2018-02-10T18:04:06.652Z,98815.69
2018-02-10T18:06:33.008Z,98812.31
2018-02-10T18:08:59.488Z,98804.67
2018-02-10T18:11:25.860Z,98817.04
2018-02-10T18:13:52.289Z,98811.55
2018-02-10T18:16:18.760Z,98806.13
2018-02-10T18:18:45.147Z,98816.16
2018-02-10T18:21:11.632Z,98819.17
2018-02-10T18:23:38.073Z,98821.17
2018-02-10T18:26:04.413Z,98811.00
2018-02-10T18:28:30.876Z,98805.25
2018-02-10T18:30:58.186Z,98809.67
2018-02-10T18:33:24.602Z,98802.61
2018-02-10T18:35:51.770Z,98802.33
2018-02-10T18:38:18.510Z,98794.66
2018-02-10T18:40:44.919Z,98795.30
2018-02-10T18:43:11.403Z,98809.84
2018-02-10T18:45:38.457Z,98811.81
2018-02-10T18:48:04.807Z,98823.02
2018-02-10T18:50:31.190Z,98828.03
2018-02-10T18:52:57.593Z,98837.67
2018-02-10T18:55:24.131Z,98852.20
2018-02-10T18:57:50.507Z,98851.43
2018-02-10T19:00:17.047Z,98845.08
2018-02-10T19:02:43.522Z,98842.50
2018-02-10T19:05:10.013Z,98835.58
2018-02-10T19:07:36.398Z,98834.55
2018-02-10T19:10:03.038Z,98835.81
2018-02-10T19:12:30.246Z,98823.91
2018-02-10T19:14:56.812Z,98798.88
2018-02-10T19:17:23.799Z,98800.33
2018-02-10T19:19:50.492Z,98799.16
2018-02-10T19:22:17.078Z,98799.83
2018-02-10T19:24:43.646Z,98800.66
2018-02-10T19:27:11.135Z,98791.20
2018-02-10T19:29:37.908Z,98787.81
2018-02-10T19:32:08.182Z,98802.98
2018-02-10T19:34:35.039Z,98798.45
2018-02-10T19:37:01.705Z,98806.03
2018-02-10T19:39:28.569Z,98818.84
2018-02-10T19:41:55.106Z,98820.74
2018-02-10T19:44:21.798Z,98816.80
2018-02-10T19:46:48.217Z,98808.94
2018-02-10T19:49:14.619Z,98814.13
2018-02-10T19:51:41.032Z,98814.09
2018-02-10T19:54:08.775Z,98816.88
2018-02-10T19:56:36.448Z,98809.44
2018-02-10T19:59:04.245Z,98796.47
2018-02-10T20:01:30.933Z,98796.36
2018-02-10T20:03:57.697Z,98783.52
2018-02-10T20:06:24.071Z,98784.30
2018-02-10T20:08:50.509Z,98786.96
2018-02-10T20:11:16.917Z,98781.45
2018-02-10T20:13:43.338Z,98785.40
2018-02-10T20:16:09.784Z,98785.31
2018-02-10T20:18:36.258Z,98786.62
2018-02-10T20:21:02.686Z,98792.70
2018-02-10T20:23:29.111Z,98789.18
2018-02-10T20:25:55.602Z,98799.09
2018-02-10T20:28:22.009Z,98797.08
2018-02-10T20:30:48.406Z,98804.55
2018-02-10T20:33:14.837Z,98808.78
2018-02-10T20:35:41.342Z,98809.98
2018-02-10T20:38:07.765Z,98810.80
2018-02-10T20:40:34.142Z,98814.75
2018-02-10T20:43:00.558Z,98808.92
2018-02-10T20:45:27.016Z,98808.02
2018-02-10T20:47:53.485Z,98797.95
2018-02-10T20:50:19.873Z,98786.14
2018-02-10T20:52:46.307Z,98781.81
2018-02-10T20:55:12.725Z,98766.31
2018-02-10T20:57:39.238Z,98766.94
2018-02-10T21:00:05.732Z,98761.14
2018-02-10T21:02:32.144Z,98759.75
2018-02-10T21:04:58.540Z,98750.23
2018-02-10T21:07:32.088Z,98755.62
2018-02-10T21:09:58.423Z,98744.19
2018-02-10T21:12:24.913Z,98741.14
2018-02-10T21:14:51.370Z,98734.88
2018-02-10T21:17:17.840Z,98724.26
2018-02-10T21:19:44.248Z,98724.17
2018-02-10T21:22:10.660Z,98720.00
2018-02-10T21:24:37.108Z,98720.61
2018-02-10T21:27:04.397Z,98718.20
2018-02-10T21:29:30.793Z,98725.44
2018-02-10T21:31:57.237Z,98718.84
2018-02-10T21:34:23.740Z,98716.23
2018-02-10T21:36:50.219Z,98719.50
2018-02-10T21:39:16.651Z,98721.48
2018-02-10T21:41:43.117Z,98714.06
2018-02-10T21:44:09.509Z,98713.30
2018-02-10T21:46:36.045Z,98707.09
2018-02-10T21:49:02.493Z,98705.92
2018-02-10T21:51:28.884Z,98704.54
2018-02-10T21:53:55.330Z,98703.19
2018-02-10T21:56:21.856Z,98704.64
2018-02-10T21:58:48.234Z,98714.82
2018-02-10T22:01:14.664Z,98708.62
2018-02-10T22:03:41.112Z,98718.66
2018-02-10T22:06:07.476Z,98710.48
2018-02-10T22:08:33.892Z,98709.30
2018-02-10T22:11:00.348Z,98710.59
2018-02-10T22:13:26.693Z,98714.20
2018-02-10T22:15:53.229Z,98707.36
2018-02-10T22:18:19.628Z,98708.91
2018-02-10T22:20:46.024Z,98701.14
2018-02-10T22:23:12.464Z,98698.05
2018-02-10T22:25:38.866Z,98694.64
2018-02-10T22:28:05.253Z,98691.73
2018-02-10T22:30:31.789Z,98698.31
2018-02-10T22:32:58.240Z,98705.20
2018-02-10T22:35:24.668Z,98703.47
2018-02-10T22:37:51.178Z,98699.67
2018-02-10T22:40:17.616Z,98691.38
2018-02-10T22:42:44.035Z,98689.58
2018-02-10T22:45:10.504Z,98673.92
2018-02-10T22:47:36.924Z,98685.02
2018-02-10T22:50:03.334Z,98689.14
2018-02-10T22:52:29.808Z,98690.80
2018-02-10T22:54:56.197Z,98681.14
2018-02-10T22:57:22.568Z,98674.86
2018-02-10T22:59:49.165Z,98660.42
2018-02-10T23:02:15.576Z,98662.80
2018-02-10T23:04:41.953Z,98649.98
2018-02-10T23:07:08.448Z,98642.14
2018-02-10T23:09:34.837Z,98640.22
2018-02-10T23:12:01.219Z,98638.24
2018-02-10T23:14:27.690Z,98637.68
2018-02-10T23:16:54.088Z,98635.73
2018-02-10T23:19:20.497Z,98633.31
2018-02-10T23:21:46.933Z,98634.47
2018-02-10T23:24:13.421Z,98625.16
2018-02-10T23:26:39.824Z,98626.12
2018-02-10T23:29:06.284Z,98630.16
2018-02-10T23:31:32.649Z,98634.17
2018-02-10T23:33:59.059Z,98641.14
2018-02-10T23:36:25.531Z,98638.88
2018-02-10T23:38:51.948Z,98638.59
2018-02-10T23:41:18.358Z,98640.72
2018-02-10T23:43:44.736Z,98641.27
2018-02-10T23:46:11.117Z,98640.86
2018-02-10T23:48:37.500Z,98629.21
2018-02-10T23:51:04.105Z,98626.55
2018-02-10T23:53:30.612Z,98623.78
2018-02-10T23:55:57.052Z,98626.07
2018-02-10T23:58:23.461Z,98621.79
